Time;durP1;ratioP1;P1;durP2;ratioP2;P2;SDS_P1;SDS_P2;PMS_P1;PMS_P2;Temp;Humidity;BMP_temperature;BMP_pressure;BME280_temperature;BME280_humidity;BME280_pressure;Samples;Min_cycle;Max_cycle;Signal;HPM_P1;HPM_P2
2023/02/21 02:15:22;;;;;;;;;;;10.50;91.70;;;9.35;77.16;100951.88;4875679;29;20385;-75
2023/02/21 02:18:09;;;;;;;;;;;10.50;91.70;;;9.36;77.31;100953.50;4875045;29;19938;-75
2023/02/21 02:21:15;;;;;;;;;;;10.50;91.80;;;9.36;77.22;100950.84;4877177;29;19959;-74
2023/02/21 02:24:24;;;;;;;;;;;10.50;91.80;;;9.39;77.14;100962.97;4863406;29;19938;-75
2023/02/21 02:27:36;;;;;;;;;;;10.50;91.70;;;9.37;77.05;100955.19;4824213;29;19933;-75
2023/02/21 02:30:51;;;;;;;;;;;10.50;91.60;;;9.24;77.82;100963.84;4873555;29;20011;-75
2023/02/21 02:33:54;;;;;;;;;;;10.50;91.80;;;9.28;78.04;100956.31;4875553;29;20397;-75
2023/02/21 02:36:27;;;;;;;;;;;10.50;92.00;;;9.34;77.78;100952.88;4876105;29;19928;-75
2023/02/21 02:38:59;;;;;;;;;;;10.50;91.60;;;9.39;77.50;100947.81;4876539;29;19932;-75
2023/02/21 02:41:35;;;;;;;;;;;10.60;91.60;;;9.42;77.18;100942.13;4875775;29;19928;-75
2023/02/21 02:44:06;;;;;;;;;;;10.60;91.40;;;9.44;77.11;100948.06;4867700;29;19931;-75
2023/02/21 02:46:37;;;;;;;;;;;10.60;91.30;;;9.47;76.99;100942.38;4905888;29;20461;-75
2023/02/21 02:49:07;;;;;;;;;;;10.60;91.30;;;9.48;76.64;100941.34;4862792;29;20476;-75
2023/02/21 02:51:36;;;;;;;;;;;10.60;91.20;;;9.53;76.65;100949.56;4874065;29;20405;-74
2023/02/21 02:54:05;;;;;;;;;;;10.70;91.20;;;9.57;76.55;100949.19;4890058;29;19931;-75
2023/02/21 02:56:35;;;;;;;;;;;10.70;91.00;;;9.60;76.18;100944.28;4897172;29;19928;-75
2023/02/21 02:59:05;;;;;;;;;;;10.70;90.90;;;9.59;76.05;100944.50;4873363;29;19959;-75
2023/02/21 03:01:58;;;;;;;;;;;10.70;90.80;;;9.55;75.80;100936.06;4888945;29;19928;-75
2023/02/21 03:05:00;;;;;;;;;;;10.70;90.70;;;9.48;76.31;100936.03;4876985;29;19936;-75
2023/02/21 03:07:36;;;;;;;;;;;10.60;90.80;;;9.54;76.04;100939.75;4870938;29;20027;-75
2023/02/21 03:10:12;;;;;;;;;;;10.70;90.80;;;9.58;75.73;100943.66;4891227;29;19955;-75
2023/02/21 03:12:45;;;;;;;;;;;10.80;90.80;;;9.59;75.82;100942.66;4890240;29;20028;-75
2023/02/21 03:15:16;;;;;;;;;;;10.70;90.60;;;9.59;75.58;100942.66;4906429;29;19932;-74
2023/02/21 03:17:54;;;;;;;;;;;10.70;90.50;;;9.61;75.60;100945.13;4902410;29;20407;-75
2023/02/21 03:20:22;;;;;;;;;;;10.70;90.60;;;9.55;75.58;100933.41;4869637;29;19939;-75
2023/02/21 03:22:51;;;;;;;;;;;10.70;90.40;;;9.51;75.45;100940.13;4889536;29;19935;-75
2023/02/21 03:25:19;;;;;;;;;;;10.70;90.40;;;9.49;75.58;100942.16;4889544;29;19932;-75
2023/02/21 03:27:47;;;;;;;;;;;10.70;90.50;;;9.50;75.88;100939.31;4874681;29;19995;-75
2023/02/21 03:30:24;;;;;;;;;;;10.70;90.60;;;9.52;75.37;100945.28;4927061;23;19960;-79
2023/02/21 03:32:53;;;;;;;;;;;10.70;90.30;;;9.45;75.76;100952.38;4964728;28;19978;-79
2023/02/21 03:35:23;;;;;;;;;;;10.60;90.50;;;9.47;75.67;100945.03;4972904;28;19926;-79
2023/02/21 03:37:52;;;;;;;;;;;10.60;90.40;;;9.46;75.62;100947.88;4952350;28;19926;-79
2023/02/21 03:40:25;;;;;;;;;;;10.60;90.40;;;9.42;75.79;100947.44;4976448;28;20025;-79
2023/02/21 03:42:54;;;;;;;;;;;10.60;90.40;;;9.44;75.94;100948.06;4954883;28;19932;-79
2023/02/21 03:45:22;;;;;;;;;;;10.60;90.60;;;9.48;75.67;100945.84;4984561;28;20004;-79
2023/02/21 03:48:02;;;;;;;;;;;10.60;90.40;;;9.53;75.69;100946.09;4946285;28;19930;-79
2023/02/21 03:50:30;;;;;;;;;;;10.70;90.50;;;9.56;75.47;100935.03;4951813;28;19970;-79
2023/02/21 03:52:59;;;;;;;;;;;10.70;90.40;;;9.55;75.27;100942.22;4952865;28;19930;-79
2023/02/21 03:55:25;;;;;;;;;;;10.70;90.30;;;9.52;75.03;100939.13;4953283;28;20198;-79
2023/02/21 03:57:53;;;;;;;;;;;10.70;90.10;;;9.46;75.40;100937.22;4951248;28;19926;-79
2023/02/21 04:00:21;;;;;;;;;;;10.60;90.10;;;9.42;75.39;100926.16;4968747;28;19926;-79
2023/02/21 04:02:51;;;;;;;;;;;10.70;90.40;;;9.44;75.73;100933.94;4979940;28;19972;-79
2023/02/21 04:05:27;;;;;;;;;;;10.60;90.40;;;9.37;75.78;100935.69;4988886;28;19925;-79
2023/02/21 04:07:56;;;;;;;;;;;10.60;90.40;;;9.38;75.98;100929.38;4954011;28;19930;-79
2023/02/21 04:10:24;;;;;;;;;;;10.60;90.40;;;9.40;75.84;100938.00;4953190;28;20034;-79
2023/02/21 04:12:51;;;;;;;;;;;10.50;90.50;;;9.43;75.70;100942.94;4952900;28;20406;-79
2023/02/21 04:15:18;;;;;;;;;;;10.60;90.40;;;9.40;75.61;100943.31;4969641;28;19934;-79
2023/02/21 04:17:46;;;;;;;;;;;10.60;90.30;;;9.40;75.76;100948.63;4952886;28;20662;-79
2023/02/21 04:20:14;;;;;;;;;;;10.50;90.60;;;9.42;75.58;100951.91;4963464;28;19933;-79
2023/02/21 04:22:46;;;;;;;;;;;10.60;90.40;;;9.42;75.68;100944.78;4953320;28;19961;-79
2023/02/21 04:25:14;;;;;;;;;;;10.60;90.40;;;9.43;75.66;100948.25;4953152;28;19961;-79
2023/02/21 04:27:49;;;;;;;;;;;10.60;90.30;;;9.46;75.67;100947.88;4943915;28;19932;-79
2023/02/21 04:30:17;;;;;;;;;;;10.60;90.20;;;9.47;75.52;100945.03;4944839;28;19930;-79
2023/02/21 04:32:44;;;;;;;;;;;10.70;90.40;;;9.53;75.41;100946.09;4950291;28;19966;-79
2023/02/21 04:35:14;;;;;;;;;;;10.70;90.20;;;9.52;74.85;100952.44;4982201;28;19930;-79
2023/02/21 04:37:43;;;;;;;;;;;10.70;90.10;;;9.51;75.23;100946.25;4967954;28;19930;-79
2023/02/21 04:40:12;;;;;;;;;;;10.70;90.20;;;9.54;75.19;100945.88;4968445;28;19934;-79
2023/02/21 04:42:39;;;;;;;;;;;10.70;90.10;;;9.55;74.94;100941.38;4952207;28;20375;-79
2023/02/21 04:45:08;;;;;;;;;;;10.70;90.10;;;9.52;74.96;100934.63;4953112;28;20313;-79
2023/02/21 04:47:36;;;;;;;;;;;10.70;90.00;;;9.48;74.73;100936.03;4958986;28;19999;-79
2023/02/21 04:50:03;;;;;;;;;;;10.60;89.80;;;9.46;75.18;100926.56;4966339;28;19941;-79
2023/02/21 04:52:30;;;;;;;;;;;10.60;90.20;;;9.47;75.07;100918.41;4973318;28;19930;-79
2023/02/21 04:54:58;;;;;;;;;;;10.60;90.20;;;9.47;75.05;100922.91;4974047;28;19930;-79
2023/02/21 04:57:25;;;;;;;;;;;10.70;90.20;;;9.47;75.38;100915.75;4972543;28;19930;-79
2023/02/21 04:59:56;;;;;;;;;;;10.60;90.20;;;9.52;75.05;100915.16;4964271;28;19930;-79
2023/02/21 05:02:24;;;;;;;;;;;10.70;90.10;;;9.49;75.14;100913.69;4972070;28;20375;-79
2023/02/21 05:04:51;;;;;;;;;;;10.70;90.00;;;9.49;74.96;100910.22;4978007;28;20413;-79
2023/02/21 05:07:18;;;;;;;;;;;10.70;90.00;;;9.48;74.58;100916.56;4972233;28;19932;-79
2023/02/21 05:09:45;;;;;;;;;;;10.60;89.80;;;9.45;75.29;100924.91;4973290;28;19930;-79
2023/02/21 05:12:12;;;;;;;;;;;10.60;90.00;;;9.45;75.09;100917.75;4964333;28;19930;-79
2023/02/21 05:14:39;;;;;;;;;;;10.60;90.00;;;9.41;75.30;100919.16;4973813;28;20339;-79
2023/02/21 05:17:07;;;;;;;;;;;10.60;90.00;;;9.44;75.44;100920.63;4971236;28;19930;-79
2023/02/21 05:19:35;;;;;;;;;;;10.60;90.10;;;9.47;75.15;100922.91;4979093;28;20332;-78
2023/02/21 05:22:05;;;;;;;;;;;10.60;90.00;;;9.48;74.99;100924.53;4974747;28;20338;-78
2023/02/21 05:24:32;;;;;;;;;;;10.60;90.00;;;9.42;75.35;100928.81;4972939;28;19941;-78
2023/02/21 05:26:59;;;;;;;;;;;10.60;90.10;;;9.48;75.33;100927.22;4967486;28;20604;-78
2023/02/21 05:29:26;;;;;;;;;;;10.60;90.20;;;9.48;75.00;100933.34;4965585;28;19929;-78
2023/02/21 05:31:53;;;;;;;;;;;10.60;90.00;;;9.45;75.18;100935.56;4972613;28;19930;-78
2023/02/21 05:34:20;;;;;;;;;;;10.60;90.20;;;9.48;75.08;100924.53;4980069;28;19934;-78
2023/02/21 05:36:48;;;;;;;;;;;10.60;90.10;;;9.47;75.11;100925.56;4973941;28;20284;-78
2023/02/21 05:39:15;;;;;;;;;;;10.50;90.20;;;9.47;74.96;100929.06;4971219;28;20024;-78
2023/02/21 05:41:47;;;;;;;;;;;10.60;90.20;;;9.47;75.12;100922.91;4972785;28;19937;-78
2023/02/21 05:44:14;;;;;;;;;;;10.60;90.20;;;9.45;75.18;100923.09;4972034;28;20387;-78
2023/02/21 05:46:41;;;;;;;;;;;10.60;90.20;;;9.42;75.41;100927.97;4948148;28;19937;-78
2023/02/21 05:49:08;;;;;;;;;;;10.60;90.20;;;9.40;75.31;100925.50;4971315;28;19930;-78
2023/02/21 05:51:36;;;;;;;;;;;10.60;90.20;;;9.42;75.54;100926.16;4979834;28;19934;-79
2023/02/21 05:54:06;;;;;;;;;;;10.60;90.40;;;9.44;75.55;100928.59;4972915;28;19934;-78
2023/02/21 05:56:37;;;;;;;;;;;10.60;90.30;;;9.46;75.33;100926.56;4968197;28;19930;-81
2023/02/21 05:59:04;;;;;;;;;;;10.60;90.20;;;9.46;75.36;100929.22;4968320;28;19926;-79
2023/02/21 06:01:31;;;;;;;;;;;10.60;90.20;;;9.49;75.33;100931.50;4971083;28;20306;-77
2023/02/21 06:03:58;;;;;;;;;;;10.70;90.20;;;9.52;75.13;100928.47;4977928;28;19936;-77
2023/02/21 06:06:25;;;;;;;;;;;10.60;90.10;;;9.46;75.07;100923.91;4972807;28;19930;-77
2023/02/21 06:08:52;;;;;;;;;;;10.60;90.00;;;9.44;75.36;100920.63;4971103;28;19961;-78
2023/02/21 06:11:25;;;;;;;;;;;10.60;90.10;;;9.45;75.19;100917.75;4971758;28;20401;-78
2023/02/21 06:13:53;;;;;;;;;;;10.70;90.30;;;9.45;75.52;100924.91;4972607;28;19934;-78
2023/02/21 06:16:20;;;;;;;;;;;10.70;90.30;;;9.49;75.43;100926.19;4971048;28;19930;-78
2023/02/21 06:18:50;;;;;;;;;;;10.70;90.40;;;9.47;75.24;100925.56;4984055;28;19926;-79
2023/02/21 06:21:17;;;;;;;;;;;10.60;90.20;;;9.44;75.04;100923.28;4974181;28;19985;-78
2023/02/21 06:23:44;;;;;;;;;;;10.60;90.00;;;9.41;75.56;100927.13;4962279;28;19937;-78
2023/02/21 06:26:12;;;;;;;;;;;10.60;90.20;;;9.39;75.40;100917.72;4969203;28;19984;-79
2023/02/21 06:28:40;;;;;;;;;;;10.60;90.20;;;9.40;75.66;100922.00;4971839;28;20362;-79
2023/02/21 06:31:07;;;;;;;;;;;10.60;90.40;;;9.45;75.86;100923.09;4966283;28;20399;-79
2023/02/21 06:33:34;;;;;;;;;;;10.60;90.30;;;9.49;75.22;100926.19;4982397;28;20291;-79
2023/02/21 06:36:04;;;;;;;;;;;10.60;90.10;;;9.52;75.16;100923.16;4971904;28;20302;-79
2023/02/21 06:38:31;;;;;;;;;;;10.70;90.30;;;9.51;75.19;100924.97;4971524;28;19930;-79
2023/02/21 06:40:58;;;;;;;;;;;10.60;90.00;;;9.52;75.03;100920.50;4970049;28;19937;-78
2023/02/21 06:43:25;;;;;;;;;;;10.90;90.20;;;9.45;75.07;100920.41;4971103;28;19926;-78
2023/02/21 06:45:53;;;;;;;;;;;10.60;90.10;;;9.45;75.27;100922.25;4969559;28;20410;-77
2023/02/21 06:48:20;;;;;;;;;;;10.60;90.20;;;9.46;75.36;100916.72;4979637;28;19929;-84
2023/02/21 06:50:47;;;;;;;;;;;10.60;90.20;;;9.49;75.33;100907.56;4952953;28;20017;-79
2023/02/21 06:53:14;;;;;;;;;;;10.70;90.20;;;9.44;75.04;100912.63;4971587;28;19930;-79
2023/02/21 06:55:41;;;;;;;;;;;10.60;90.00;;;9.42;75.47;100910.19;4966244;28;19934;-81
2023/02/21 06:58:09;;;;;;;;;;;10.60;90.10;;;9.43;75.51;100911.81;4962768;28;19930;-80
2023/02/21 07:00:36;;;;;;;;;;;10.60;90.20;;;9.44;75.57;100912.63;4970807;28;19930;-81
2023/02/21 07:03:05;;;;;;;;;;;10.60;90.20;;;9.42;75.43;100917.31;4980840;28;19930;-86
2023/02/21 07:05:33;;;;;;;;;;;10.60;90.20;;;9.39;75.70;100915.06;4970855;28;19945;-87
2023/02/21 07:08:00;;;;;;;;;;;10.60;90.20;;;9.40;75.69;100914.03;4966878;28;19926;-83
2023/02/21 07:10:27;;;;;;;;;;;10.60;90.30;;;9.40;75.61;100922.00;4970815;28;19930;-83
2023/02/21 07:12:54;;;;;;;;;;;10.70;90.40;;;9.43;75.68;100934.94;4970848;28;19941;-84
2023/02/21 07:15:21;;;;;;;;;;;10.60;90.20;;;9.43;75.69;100927.78;4970724;28;19952;-84
2023/02/21 07:17:48;;;;;;;;;;;10.60;90.40;;;9.46;75.56;100931.88;4965127;28;19936;-82
2023/02/21 07:20:17;;;;;;;;;;;10.60;90.30;;;9.49;75.55;100931.50;4970582;28;19934;-83
2023/02/21 07:22:44;;;;;;;;;;;10.60;90.30;;;9.46;75.37;100935.38;4971398;28;19930;-83
2023/02/21 07:25:14;;;;;;;;;;;10.70;90.40;;;9.46;75.56;100929.22;4969362;28;19932;-83
2023/02/21 07:27:41;;;;;;;;;;;10.90;90.40;;;9.45;75.62;100936.41;4966790;28;19929;-83
2023/02/21 07:30:10;;;;;;;;;;;10.60;90.30;;;9.49;75.45;100937.66;4976538;28;19925;-84
2023/02/21 07:32:37;;;;;;;;;;;10.60;90.30;;;9.51;75.26;100937.47;4964730;28;19930;-85
2023/02/21 07:35:04;;;;;;;;;;;10.70;90.30;;;9.45;75.22;100933.72;4967665;28;20390;-86
2023/02/21 07:37:32;;;;;;;;;;;10.80;90.30;;;9.43;75.69;100942.94;4980498;28;19925;-87
2023/02/21 07:39:59;;;;;;;;;;;10.60;90.40;;;9.42;75.59;100941.25;4988455;28;19940;-86
2023/02/21 07:42:26;;;;;;;;;;;10.60;90.30;;;9.38;75.51;100938.19;4961554;28;19937;-86
2023/02/21 07:44:55;;;;;;;;;;;10.60;90.40;;;9.39;76.14;100936.34;4953259;28;20375;-85
2023/02/21 07:47:23;;;;;;;;;;;10.60;90.60;;;9.37;75.88;100939.22;4965118;28;19989;-84
2023/02/21 07:49:50;;;;;;;;;;;10.60;90.50;;;9.36;75.86;100937.53;4973197;28;19930;-85
2023/02/21 07:52:17;;;;;;;;;;;10.60;90.60;;;9.34;76.19;100938.75;4973684;28;20371;-85
2023/02/21 07:54:46;;;;;;;;;;;10.50;90.70;;;9.35;76.08;100935.06;4954740;28;19976;-85
2023/02/21 07:57:13;;;;;;;;;;;10.50;90.70;;;9.36;76.24;100947.38;4969832;28;19934;-85
2023/02/21 07:59:40;;;;;;;;;;;10.50;90.80;;;9.32;76.25;100935.44;4962415;28;19936;-88
2023/02/21 08:02:07;;;;;;;;;;;10.50;90.80;;;9.31;76.44;100931.97;4953076;28;20029;-91
2023/02/21 08:04:34;;;;;;;;;;;10.50;91.00;;;9.27;76.76;100931.56;4965600;28;20016;-92
2023/02/21 08:07:06;;;;;;;;;;;10.40;91.10;;;9.24;76.61;100934.59;4979615;28;19977;-94
2023/02/21 08:09:37;;;;;;;;;;;10.40;91.40;;;9.23;76.74;100929.47;4961663;28;19969;-93
2023/02/21 08:12:06;;;;;;;;;;;10.40;91.40;;;9.20;77.14;100929.81;4968804;28;19961;-94
2023/02/21 08:14:33;;;;;;;;;;;10.40;91.40;;;9.17;77.47;100935.53;4969634;28;19938;-92
2023/02/21 08:17:00;;;;;;;;;;;10.40;91.60;;;9.18;77.34;100935.34;4952795;28;19965;-89
2023/02/21 08:19:27;;;;;;;;;;;10.30;91.60;;;9.14;77.50;100926.09;4971692;28;19937;-89
2023/02/21 08:21:54;;;;;;;;;;;10.30;91.80;;;9.08;77.82;100940.16;4979107;28;19930;-88
2023/02/21 08:24:21;;;;;;;;;;;10.30;91.80;;;9.08;78.04;100941.97;4951281;28;20016;-85
2023/02/21 08:26:48;;;;;;;;;;;10.30;91.90;;;9.05;78.27;100953.03;4952072;28;19937;-85
2023/02/21 08:29:17;;;;;;;;;;;10.30;92.00;;;9.01;78.26;100963.22;4974404;28;19930;-85
2023/02/21 08:31:44;;;;;;;;;;;10.30;92.00;;;9.00;78.61;100957.06;4969829;28;19930;-86
2023/02/21 08:34:12;;;;;;;;;;;10.30;92.20;;;9.08;78.68;100947.28;4980966;28;20036;-86
2023/02/21 08:36:41;;;;;;;;;;;10.30;92.20;;;9.12;78.11;100951.22;4989106;28;20346;-86
2023/02/21 08:39:09;;;;;;;;;;;10.30;92.00;;;9.12;78.12;100957.38;4973244;28;19930;-85
2023/02/21 08:41:37;;;;;;;;;;;10.30;92.00;;;9.05;78.47;100961.00;4966044;28;19973;-85
2023/02/21 08:44:05;;;;;;;;;;;10.20;92.20;;;9.06;78.72;100963.47;4973205;28;20417;-85
2023/02/21 08:46:34;;;;;;;;;;;10.30;92.40;;;9.09;78.31;100947.13;4971580;28;19933;-85
2023/02/21 08:49:01;;;;;;;;;;;10.30;92.40;;;9.10;78.66;100959.41;4982511;28;19961;-86
2023/02/21 08:51:30;;;;;;;;;;;10.30;92.40;;;9.07;78.49;100959.78;4973440;28;19929;-86
2023/02/21 08:53:57;;;;;;;;;;;10.20;92.40;;;9.07;78.59;100965.09;4965264;28;20275;-85
2023/02/21 08:56:25;;;;;;;;;;;10.30;92.50;;;9.13;78.52;100959.03;4973192;28;19926;-86
2023/02/21 08:58:53;;;;;;;;;;;10.30;92.50;;;9.13;78.36;100952.91;4970535;28;19929;-86
2023/02/21 09:01:21;;;;;;;;;;;10.30;92.50;;;9.13;78.36;100944.91;4972486;28;19933;-86
2023/02/21 09:03:49;;;;;;;;;;;10.30;92.60;;;9.13;78.46;100947.59;4981560;28;19936;-85
2023/02/21 09:06:17;;;;;;;;;;;10.30;92.50;;;9.09;78.77;100948.97;4968681;28;19926;-86
2023/02/21 09:08:44;;;;;;;;;;;10.40;92.60;;;9.08;78.71;100942.81;4977223;28;19968;-85
2023/02/21 09:11:11;;;;;;;;;;;10.30;92.60;;;9.10;78.74;100938.13;4981508;28;19930;-86
2023/02/21 09:13:38;;;;;;;;;;;10.30;92.60;;;9.08;78.60;100945.50;4964794;28;20378;-86
2023/02/21 09:16:05;;;;;;;;;;;10.30;92.60;;;9.03;78.83;100947.91;4971389;28;20457;-86
2023/02/21 09:18:32;;;;;;;;;;;10.30;92.60;;;9.00;78.99;100949.09;4970551;28;20272;-86
2023/02/21 09:21:01;;;;;;;;;;;10.20;92.60;;;8.97;79.46;100938.81;4974461;28;20013;-86
2023/02/21 09:23:29;;;;;;;;;;;10.20;93.00;;;8.93;79.72;100940.22;4978769;28;19934;-86
2023/02/21 09:25:56;;;;;;;;;;;10.10;93.30;;;8.95;79.87;100934.69;4973964;28;20291;-86
2023/02/21 09:28:24;;;;;;;;;;;10.10;93.40;;;8.95;80.11;100919.56;4971766;28;20025;-85
2023/02/21 09:30:51;;;;;;;;;;;10.20;93.50;;;8.97;80.06;100930.00;4975218;23;19929;-76
2023/02/21 09:33:18;;;;;;;;;;;10.10;93.40;;;9.00;80.32;100930.47;4973186;28;19934;-75
2023/02/21 09:35:45;;;;;;;;;;;10.20;93.60;;;9.07;80.01;100933.19;4970905;28;19937;-76
2023/02/21 09:38:13;;;;;;;;;;;10.30;93.50;;;9.11;79.91;100933.63;4969748;28;20316;-76
2023/02/21 09:40:43;;;;;;;;;;;10.30;93.50;;;9.17;79.53;100924.88;4971396;28;19981;-77
2023/02/21 09:43:14;;;;;;;;;;;10.30;93.30;;;9.18;79.45;100932.69;4971804;28;19941;-76
2023/02/21 09:45:42;;;;;;;;;;;10.40;93.30;;;9.10;79.78;100924.00;4969820;28;19930;-76
2023/02/21 09:48:14;;;;;;;;;;;10.40;93.20;;;9.13;79.66;100926.28;4969850;28;20012;-76
2023/02/21 09:50:44;;;;;;;;;;;10.40;93.00;;;9.15;79.64;100919.75;4966470;28;19934;-76
2023/02/21 09:53:13;;;;;;;;;;;10.40;93.10;;;9.17;79.71;100917.72;4969407;28;20506;-76
2023/02/21 09:55:41;;;;;;;;;;;10.40;93.20;;;9.15;80.28;100925.06;4961396;28;19937;-76
2023/02/21 09:58:11;;;;;;;;;;;10.40;93.40;;;9.24;80.04;100929.25;4950464;28;20396;-76
2023/02/21 10:00:39;;;;;;;;;;;10.40;93.30;;;9.31;79.63;100923.16;4966236;28;19936;-76
2023/02/21 10:03:19;;;;;;;;;;;10.50;93.30;;;9.38;79.52;100926.72;4968633;28;19937;-75
2023/02/21 10:05:52;;;;;;;;;;;10.50;93.20;;;9.39;79.29;100928.38;4960520;28;19936;-75
2023/02/21 10:08:25;;;;;;;;;;;10.50;93.00;;;9.40;78.97;100927.34;4971892;28;19934;-76
2023/02/21 10:10:56;;;;;;;;;;;10.50;92.80;;;9.39;78.88;100931.84;4959043;28;19933;-75
2023/02/21 10:13:34;;;;;;;;;;;10.50;92.70;;;9.39;78.70;100933.69;4972471;28;19934;-77
2023/02/21 10:16:04;;;;;;;;;;;10.50;92.60;;;9.39;78.94;100925.69;4965197;28;19940;-77
2023/02/21 10:18:38;;;;;;;;;;;10.50;92.80;;;9.39;78.85;100923.84;4971292;28;20419;-76
2023/02/21 10:21:12;;;;;;;;;;;10.50;92.60;;;9.40;78.81;100928.16;4959901;28;19942;-77
2023/02/21 10:23:41;;;;;;;;;;;10.50;92.60;;;9.41;78.86;100928.97;4955368;28;19930;-77
2023/02/21 10:26:13;;;;;;;;;;;10.60;92.70;;;9.35;78.84;100929.75;4969553;28;19952;-76
2023/02/21 10:28:40;;;;;;;;;;;10.50;92.50;;;9.33;79.23;100927.28;4967325;28;19934;-77
2023/02/21 10:31:09;;;;;;;;;;;10.50;92.70;;;9.38;78.82;100926.72;4969462;28;19945;-76
2023/02/21 10:33:38;;;;;;;;;;;10.60;92.60;;;9.39;78.58;100929.19;4960224;28;19927;-77
2023/02/21 10:36:11;;;;;;;;;;;10.50;92.50;;;9.40;78.62;100936.16;4971401;28;20354;-78
2023/02/21 10:38:40;;;;;;;;;;;10.60;92.50;;;9.38;78.69;100929.38;4960644;28;19933;-76
2023/02/21 10:41:07;;;;;;;;;;;10.60;92.40;;;9.40;78.79;100930.00;4958730;28;20395;-76
2023/02/21 10:43:39;;;;;;;;;;;10.60;92.40;;;9.43;78.71;100926.97;4967754;28;19971;-76
2023/02/21 10:46:11;;;;;;;;;;;10.70;92.60;;;9.41;78.56;100924.47;4970611;28;19961;-76
2023/02/21 10:48:41;;;;;;;;;;;10.60;92.40;;;9.42;78.25;100933.28;4962476;28;19926;-75
2023/02/21 10:51:11;;;;;;;;;;;10.60;92.20;;;9.42;78.56;100941.25;4968680;28;19926;-76
2023/02/21 10:53:39;;;;;;;;;;;10.60;92.40;;;9.39;78.59;100934.50;4952215;28;19941;-76
2023/02/21 10:56:09;;;;;;;;;;;10.50;92.40;;;9.41;78.65;100937.78;4965948;28;19930;-77
2023/02/21 10:58:37;;;;;;;;;;;10.60;92.40;;;9.41;78.25;100934.31;4966745;28;19965;-77
2023/02/21 11:01:13;;;;;;;;;;;10.60;92.20;;;9.41;78.24;100934.31;4970258;28;19937;-77
2023/02/21 11:03:44;;;;;;;;;;;10.60;92.40;;;9.38;78.34;100934.72;4966940;28;19930;-77
2023/02/21 11:06:22;;;;;;;;;;;10.50;92.30;;;9.36;78.70;100931.41;4970042;28;19934;-76
2023/02/21 11:08:49;;;;;;;;;;;10.60;92.40;;;9.31;78.24;100925.81;4970542;28;19937;-77
2023/02/21 11:11:16;;;;;;;;;;;10.60;92.20;;;9.32;79.30;100927.47;4952626;28;19926;-76
2023/02/21 11:13:45;;;;;;;;;;;10.50;92.70;;;9.35;79.28;100929.75;4957175;28;19937;-77
2023/02/21 11:16:17;;;;;;;;;;;10.50;92.80;;;9.38;79.42;100924.88;4956669;28;19989;-77
2023/02/21 11:18:44;;;;;;;;;;;10.60;92.80;;;9.39;79.64;100925.69;4969599;28;19926;-77
2023/02/21 11:21:13;;;;;;;;;;;10.60;93.00;;;9.45;79.87;100920.41;4964948;28;20292;-77
2023/02/21 11:23:45;;;;;;;;;;;10.70;93.30;;;9.49;79.87;100919.03;4970519;28;20151;-77
2023/02/21 11:26:12;;;;;;;;;;;10.70;93.20;;;9.52;79.86;100926.63;4968601;28;19933;-76
2023/02/21 11:28:42;;;;;;;;;;;10.70;93.20;;;9.56;79.66;100927.06;4968887;28;20403;-77
2023/02/21 11:31:16;;;;;;;;;;;10.80;93.00;;;9.55;79.53;100925.41;4968035;28;19973;-77
2023/02/21 11:33:50;;;;;;;;;;;10.80;93.00;;;9.55;79.54;100912.09;4967265;28;19927;-76
2023/02/21 11:36:20;;;;;;;;;;;10.80;93.10;;;9.53;79.94;100914.97;4968838;28;19974;-76
2023/02/21 11:39:00;;;;;;;;;;;10.80;93.20;;;9.59;79.65;100915.19;4968641;28;19930;-78
2023/02/21 11:41:30;;;;;;;;;;;10.70;93.00;;;9.63;79.49;100911.16;4969218;28;19930;-78
2023/02/21 11:43:57;;;;;;;;;;;10.80;92.90;;;9.65;79.29;100909.91;4964675;28;19930;-77
2023/02/21 11:46:34;;;;;;;;;;;10.80;92.60;;;9.67;78.95;100905.25;4967092;28;19998;-77
2023/02/21 11:49:06;;;;;;;;;;;10.80;92.50;;;9.68;78.88;100906.88;4968844;28;19930;-78
2023/02/21 11:51:39;;;;;;;;;;;10.90;92.50;;;9.69;78.80;100905.03;4968523;28;20302;-76
2023/02/21 11:54:06;;;;;;;;;;;10.90;92.50;;;9.74;78.90;100906.09;4968084;28;20328;-75
2023/02/21 11:56:46;;;;;;;;;;;10.90;92.50;;;9.77;78.39;100892.41;4968230;28;19965;-76
2023/02/21 11:59:22;;;;;;;;;;;10.90;92.30;;;9.73;78.11;100891.13;4970141;28;20354;-75
2023/02/21 12:01:59;;;;;;;;;;;10.90;91.90;;;9.74;77.56;100892.78;4968807;28;19926;-75
2023/02/21 12:04:37;;;;;;;;;;;10.90;91.60;;;9.62;76.78;100894.34;4970196;28;19930;-76
2023/02/21 12:07:12;;;;;;;;;;;10.90;91.00;;;9.59;77.16;100889.41;4968669;28;19927;-75
2023/02/21 12:09:43;;;;;;;;;;;10.90;91.20;;;9.63;77.58;100890.66;4969396;28;19984;-75
2023/02/21 12:12:21;;;;;;;;;;;10.80;91.40;;;9.67;77.53;100881.25;4966770;28;19930;-76
2023/02/21 12:15:00;;;;;;;;;;;10.90;91.60;;;9.70;77.63;100891.50;4955767;28;19930;-76
2023/02/21 12:17:40;;;;;;;;;;;10.90;91.60;;;9.77;77.42;100883.59;4962807;28;19949;-75
2023/02/21 12:20:18;;;;;;;;;;;10.90;91.60;;;9.76;76.98;100880.09;4963991;28;19930;-76
2023/02/21 12:22:56;;;;;;;;;;;10.90;91.40;;;9.74;76.76;100876.78;4966107;28;19930;-75
2023/02/21 12:25:29;;;;;;;;;;;10.90;91.20;;;9.77;76.69;100880.91;4964593;28;19934;-76
2023/02/21 12:28:02;;;;;;;;;;;10.90;91.00;;;9.82;76.77;100875.00;4967524;28;19937;-76
2023/02/21 12:30:39;;;;;;;;;;;11.00;91.00;;;9.84;76.33;100872.97;4965332;28;19944;-82
2023/02/21 12:33:19;;;;;;;;;;;11.00;90.90;;;9.85;76.27;100871.94;4968912;28;19931;-76
2023/02/21 12:36:01;;;;;;;;;;;11.00;90.80;;;9.88;76.15;100866.22;4968583;28;20390;-76
2023/02/21 12:38:34;;;;;;;;;;;11.00;90.70;;;9.88;76.03;100860.91;4967366;28;19937;-75
2023/02/21 12:41:07;;;;;;;;;;;11.00;90.60;;;9.89;76.04;100862.53;4968178;28;19930;-75
2023/02/21 12:43:44;;;;;;;;;;;11.00;90.50;;;9.92;75.94;100857.63;4969122;28;19930;-76
2023/02/21 12:46:18;;;;;;;;;;;11.10;90.70;;;9.89;75.56;100859.88;4964450;28;19934;-76
2023/02/21 12:49:03;;;;;;;;;;;11.10;90.40;;;9.90;75.11;100857.00;4968281;28;19930;-75
2023/02/21 12:51:33;;;;;;;;;;;11.00;89.70;;;9.87;74.91;100849.41;4968176;28;19934;-75
2023/02/21 12:54:05;;;;;;;;;;;11.00;89.70;;;9.87;75.13;100845.94;4969618;28;19926;-75
2023/02/21 12:56:37;;;;;;;;;;;11.10;89.60;;;9.83;75.24;100844.69;4968772;28;19930;-75
2023/02/21 12:59:11;;;;;;;;;;;11.00;89.80;;;9.85;75.30;100845.28;4967766;28;19936;-75
2023/02/21 13:01:41;;;;;;;;;;;11.00;89.90;;;9.87;75.43;100841.44;4968717;28;19930;-75
2023/02/21 13:04:19;;;;;;;;;;;11.00;90.00;;;9.92;75.60;100832.84;4966733;28;19930;-75
2023/02/21 13:06:49;;;;;;;;;;;11.00;90.20;;;9.98;75.62;100834.72;4967627;28;19934;-75
2023/02/21 13:09:26;;;;;;;;;;;11.10;90.40;;;9.98;75.68;100830.19;4966431;28;19937;-81
2023/02/21 13:11:59;;;;;;;;;;;11.10;90.50;;;9.99;75.57;100820.34;4969775;28;19957;-76
2023/02/21 13:14:35;;;;;;;;;;;11.10;90.50;;;9.97;74.77;100825.06;4970372;28;20311;-76
2023/02/21 13:17:02;;;;;;;;;;;11.10;89.80;;;9.97;74.91;100825.06;4971176;28;19934;-76
2023/02/21 13:19:39;;;;;;;;;;;11.10;90.10;;;9.99;75.13;100815.84;4972286;28;20276;-76
2023/02/21 13:25:58;;;;;;;;;;;11.10;90.00;;;9.79;75.02;100810.44;4932619;28;19937;-75
2023/02/21 13:28:28;;;;;;;;;;;11.10;89.70;;;9.78;75.41;100808.78;4971167;28;19930;-76
2023/02/21 13:30:59;;;;;;;;;;;11.00;89.80;;;9.83;75.38;100810.88;4971465;28;19948;-76
2023/02/21 13:33:30;;;;;;;;;;;11.00;90.00;;;9.83;74.86;100799.41;4971492;28;19969;-75
2023/02/21 13:36:00;;;;;;;;;;;11.00;89.50;;;9.76;75.65;100804.66;4971634;28;19937;-78
2023/02/21 13:38:29;;;;;;;;;;;11.00;90.30;;;9.82;75.78;100797.75;4972328;28;20568;-76
2023/02/21 13:41:05;;;;;;;;;;;11.00;90.40;;;9.84;75.36;100804.50;4968744;28;20060;-77
2023/02/21 13:43:35;;;;;;;;;;;11.00;90.20;;;9.82;75.33;100795.91;4971517;28;19990;-76
2023/02/21 13:46:23;;;;;;;;;;;11.00;90.20;;;9.82;75.72;100795.09;4969855;28;19976;-77
2023/02/21 13:49:24;;;;;;;;;;;11.00;90.20;;;9.88;75.27;100794.28;4970094;28;19926;-77
2023/02/21 13:51:54;;;;;;;;;;;11.00;90.10;;;9.88;75.18;100796.94;4965255;28;19937;-77